High Glow — 3EAV5 — position and weather

sailwx.info

Track history (hours):
 
Tides and Currents Weather Stations Pressure Air Temp Water Temp Dewpoint Dewpoint Depression Visibility Wind Speed Wind Dir Waves Ship Positions

High Glow

Last reported at 2018-Oct-10 22:40 UTC. Time now 2018-Oct-17 21:14 UTC.
Position N 36°05' W 026°05'.

Length 180 m; draft 10.8 m.

Type: Ship. MMSI: 371179000.

Date/timePositionNaut miles runAvg speedWind from/ knotsBaromVisibWave heightAir tempDewpointWater temp
2018-Oct-10 22:40N 36°05' W 026°05'211.9
2018-Oct-10 22:30N 36°05' W 026°03'511.6
2018-Oct-10 22:03N 36°06' W 025°57'111.1
2018-Oct-10 22:00N 36°06' W 025°56'611.7
2018-Oct-10 21:30N 36°07' W 025°49'511.6
2018-Oct-10 21:03N 36°08' W 025°42'111.6
2018-Oct-10 21:00N 36°08' W 025°42'611.5
2018-Oct-10 20:30N 36°09' W 025°35'511.4
2018-Oct-10 20:03N 36°10' W 025°28'111.4
2018-Oct-10 20:00N 36°10' W 025°28'611.3
2018-Oct-10 19:30N 36°11' W 025°21'511.4
2018-Oct-10 19:03N 36°11' W 025°14'012.1
2018-Oct-10 19:00N 36°12' W 025°14'611.6
2018-Oct-10 18:30N 36°13' W 025°07'511.6
2018-Oct-10 18:03N 36°13' W 025°00'112.3
2018-Oct-10 18:00N 36°14' W 024°60'612.0
2018-Oct-10 17:31N 36°16' W 024°53'512.1
2018-Oct-10 17:03N 36°18' W 024°47'111.9
2018-Oct-10 17:00N 36°18' W 024°46'612.0
2018-Oct-10 16:30N 36°20' W 024°39'512.1
2018-Oct-10 16:03N 36°22' W 024°33'112.3
2018-Oct-10 16:00N 36°23' W 024°32'612.0
2018-Oct-10 15:30N 36°25' W 024°25'612.2
2018-Oct-10 15:03N 36°27' W 024°18'112.6
2018-Oct-10 15:00N 36°27' W 024°18'612.5
2018-Oct-10 14:30N 36°29' W 024°10'612.5
2018-Oct-10 14:00N 36°31' W 024°03'612.7
2018-Oct-10 13:30N 36°33' W 023°56'612.9
2018-Oct-10 13:04N 36°35' W 023°49'113.1
2018-Oct-10 13:01N 36°35' W 023°48'712.8
2018-Oct-10 12:29N 36°38' W 023°40'49712.6
2018-Oct-08 20:57N 36°46' W 013°20'34 8.5
2018-Oct-08 16:56N 36°46' W 012°37'512.4
2018-Oct-08 16:30N 36°45' W 012°31'712.4
2018-Oct-08 15:54N 36°43' W 012°22'2612.3
2018-Oct-08 13:45N 36°33' W 011°51'812.4
2018-Oct-08 13:07N 36°30' W 011°42'512.1
2018-Oct-08 12:45N 36°29' W 011°37'412.1
2018-Oct-08 12:24N 36°27' W 011°32'4312.0
2018-Oct-08 08:51N 36°17' W 010°41'612.2
2018-Oct-08 08:23N 36°17' W 010°33'412.1
2018-Oct-08 08:03N 36°17' W 010°28'112.0
2018-Oct-08 08:00N 36°17' W 010°28'612.2
2018-Oct-08 07:30N 36°17' W 010°20'612.1
2018-Oct-08 07:01N 36°17' W 010°13'011.9
2018-Oct-08 07:00N 36°17' W 010°13'612.1
2018-Oct-08 06:30N 36°17' W 010°05'612.3
2018-Oct-08 06:02N 36°16' W 009°58'112.5
2018-Oct-08 05:58N 36°16' W 009°57'612.2
2018-Oct-08 05:30N 36°16' W 009°50'512.1
2018-Oct-08 05:03N 36°16' W 009°43'112.2
2018-Oct-08 04:59N 36°16' W 009°42'712.3
2018-Oct-08 04:25N 36°16' W 009°34'512.3
2018-Oct-08 04:02N 36°16' W 009°28'112.4
2018-Oct-08 03:59N 36°16' W 009°27'612.3
2018-Oct-08 03:30N 36°16' W 009°20'612.4
2018-Oct-08 03:03N 36°15' W 009°13'112.8
2018-Oct-08 03:00N 36°15' W 009°12'612.7
2018-Oct-08 02:30N 36°15' W 009°04'612.5
2018-Oct-08 02:03N 36°15' W 008°57'112.4
2018-Oct-08 02:00N 36°15' W 008°56'612.5
2018-Oct-08 01:30N 36°15' W 008°49'612.6
2018-Oct-08 01:02N 36°14' W 008°41'012.4
2018-Oct-08 01:00N 36°14' W 008°41'712.8
2018-Oct-08 00:28N 36°14' W 008°32'612.7
2018-Oct-07 23:58N 36°14' W 008°25'612.8
2018-Oct-07 23:30N 36°13' W 008°17'612.8
2018-Oct-07 23:02N 36°13' W 008°10'112.0
2018-Oct-07 22:57N 36°13' W 008°08'613.0
2018-Oct-07 22:29N 36°13' W 008°01'1112.6
2018-Oct-07 21:36N 36°12' W 007°47'212.0
2018-Oct-07 21:29N 36°13' W 007°46'612.6
2018-Oct-07 21:02N 36°16' W 007°40'012.4
2018-Oct-07 21:00N 36°17' W 007°40'813.2
2018-Oct-07 20:26N 36°21' W 007°32'613.1
2018-Oct-07 20:00N 36°25' W 007°27'812.7
2018-Oct-07 19:23N 36°30' W 007°19'412.7
2018-Oct-07 19:03N 36°32' W 007°15'112.4
2018-Oct-07 19:00N 36°33' W 007°15'612.4
2018-Oct-07 18:30N 36°37' W 007°09'19 1.9
2018-Oct-07 08:32N 36°50' W 006°52'0 0.3
2018-Oct-07 08:26N 36°50' W 006°52'  
2018-Oct-03 08:42N 37°05' W 006°52'0 0.0
2018-Oct-03 08:15N 37°05' W 006°52'0 0.0
2018-Oct-03 07:12N 37°05' W 006°52'0 0.0
2018-Oct-03 00:06N 37°05' W 006°52'0 0.0
2018-Oct-02 23:57N 37°05' W 006°52'0 0.0
2018-Oct-02 22:45N 37°05' W 006°52'2 0.4
2018-Oct-02 15:59N 37°02' W 006°53'1210.1
2018-Oct-02 14:45N 36°54' W 007°05'812.9
2018-Oct-02 14:08N 36°48' W 007°11'214.6
2018-Oct-02 14:00N 36°46' W 007°12'1114.0
2018-Oct-02 13:14N 36°38' W 007°21'414.0
2018-Oct-02 12:55N 36°34' W 007°24'614.2
2018-Oct-02 12:29N 36°29' W 007°29'814.3
2018-Oct-02 11:57N 36°23' W 007°34'613.8
2018-Oct-02 11:29N 36°18' W 007°39'613.5
2018-Oct-02 11:03N 36°13' W 007°44'114.1
2018-Oct-02 10:59N 36°12' W 007°44'813.8
2018-Oct-02 10:25N 36°06' W 007°50'613.9
2018-Oct-02 10:00N 36°02' W 007°54'814.2
2018-Oct-02 09:28N 35°55' W 008°00'613.9
2018-Oct-02 09:03N 35°51' W 008°04'114.2
2018-Oct-02 09:00N 35°50' W 008°05'714.2
2018-Oct-02 08:30N 35°45' W 008°10'814.2
2018-Oct-02 07:55N 35°38' W 008°16'614.1
2018-Oct-02 07:30N 35°34' W 008°21'1813.8
2018-Oct-02 06:13N 35°20' W 008°34'213.6
2018-Oct-02 06:04N 35°18' W 008°36'613.8
2018-Oct-02 05:38N 35°13' W 008°40'213.8
2018-Oct-02 05:30N 35°12' W 008°41'613.8
2018-Oct-02 05:03N 35°07' W 008°46'114.1
2018-Oct-02 05:00N 35°06' W 008°46'813.8
2018-Oct-02 04:27N 34°60' W 008°52'613.7
2018-Oct-02 04:02N 34°55' W 008°56'013.6
2018-Oct-02 04:00N 34°55' W 008°56'713.5
2018-Oct-02 03:30N 34°50' W 009°01'713.6
2018-Oct-02 03:00N 34°44' W 009°06'713.6
2018-Oct-02 02:27N 34°38' W 009°12'813.7
2018-Oct-02 01:53N 34°32' W 009°18'513.7
2018-Oct-02 01:30N 34°28' W 009°21'813.4
2018-Oct-02 00:54N 34°22' W 009°27'613.2
2018-Oct-02 00:28N 34°17' W 009°32'513.1
2018-Oct-02 00:03N 34°13' W 009°36'113.2
2018-Oct-02 00:00N 34°12' W 009°36'713.1
2018-Oct-01 23:30N 34°07' W 009°41'612.9
2018-Oct-01 23:03N 34°02' W 009°45'112.6
2018-Oct-01 23:00N 34°02' W 009°45'21613.0
2018-Oct-01 06:22N 31°10' W 012°20'412.9
2018-Oct-01 06:01N 31°07' W 012°23'012.6
2018-Oct-01 06:00N 31°07' W 012°23'  
Track history (hours):
 
Tides and Currents Weather Stations Pressure Air Temp Water Temp Dewpoint Dewpoint Depression Visibility Wind Speed Wind Dir Waves Ship Positions

High Glow

Last reported at 2018-Oct-10 22:40 UTC. Time now 2018-Oct-17 21:14 UTC.
Position N 36°05' W 026°05'.

Length 180 m; draft 10.8 m.

Type: Ship. MMSI: 371179000.

Date/timePositionNaut miles runAvg speedWind from/ knotsBaromVisibWave heightAir tempDewpointWater temp
2018-Oct-10 22:40N 36°05' W 026°05'211.9
2018-Oct-10 22:30N 36°05' W 026°03'511.6
2018-Oct-10 22:03N 36°06' W 025°57'111.1
2018-Oct-10 22:00N 36°06' W 025°56'611.7
2018-Oct-10 21:30N 36°07' W 025°49'511.6
2018-Oct-10 21:03N 36°08' W 025°42'111.6
2018-Oct-10 21:00N 36°08' W 025°42'611.5
2018-Oct-10 20:30N 36°09' W 025°35'511.4
2018-Oct-10 20:03N 36°10' W 025°28'111.4
2018-Oct-10 20:00N 36°10' W 025°28'611.3
2018-Oct-10 19:30N 36°11' W 025°21'511.4
2018-Oct-10 19:03N 36°11' W 025°14'012.1
2018-Oct-10 19:00N 36°12' W 025°14'611.6
2018-Oct-10 18:30N 36°13' W 025°07'511.6
2018-Oct-10 18:03N 36°13' W 025°00'112.3
2018-Oct-10 18:00N 36°14' W 024°60'612.0
2018-Oct-10 17:31N 36°16' W 024°53'512.1
2018-Oct-10 17:03N 36°18' W 024°47'111.9
2018-Oct-10 17:00N 36°18' W 024°46'612.0
2018-Oct-10 16:30N 36°20' W 024°39'512.1
2018-Oct-10 16:03N 36°22' W 024°33'112.3
2018-Oct-10 16:00N 36°23' W 024°32'612.0
2018-Oct-10 15:30N 36°25' W 024°25'612.2
2018-Oct-10 15:03N 36°27' W 024°18'112.6
2018-Oct-10 15:00N 36°27' W 024°18'612.5
2018-Oct-10 14:30N 36°29' W 024°10'612.5
2018-Oct-10 14:00N 36°31' W 024°03'612.7
2018-Oct-10 13:30N 36°33' W 023°56'612.9
2018-Oct-10 13:04N 36°35' W 023°49'113.1
2018-Oct-10 13:01N 36°35' W 023°48'712.8
2018-Oct-10 12:29N 36°38' W 023°40'49712.6
2018-Oct-08 20:57N 36°46' W 013°20'34 8.5
2018-Oct-08 16:56N 36°46' W 012°37'512.4
2018-Oct-08 16:30N 36°45' W 012°31'712.4
2018-Oct-08 15:54N 36°43' W 012°22'2612.3
2018-Oct-08 13:45N 36°33' W 011°51'812.4
2018-Oct-08 13:07N 36°30' W 011°42'512.1
2018-Oct-08 12:45N 36°29' W 011°37'412.1
2018-Oct-08 12:24N 36°27' W 011°32'4312.0
2018-Oct-08 08:51N 36°17' W 010°41'612.2
2018-Oct-08 08:23N 36°17' W 010°33'412.1
2018-Oct-08 08:03N 36°17' W 010°28'112.0
2018-Oct-08 08:00N 36°17' W 010°28'612.2
2018-Oct-08 07:30N 36°17' W 010°20'612.1
2018-Oct-08 07:01N 36°17' W 010°13'011.9
2018-Oct-08 07:00N 36°17' W 010°13'612.1
2018-Oct-08 06:30N 36°17' W 010°05'612.3
2018-Oct-08 06:02N 36°16' W 009°58'112.5
2018-Oct-08 05:58N 36°16' W 009°57'612.2
2018-Oct-08 05:30N 36°16' W 009°50'512.1
2018-Oct-08 05:03N 36°16' W 009°43'112.2
2018-Oct-08 04:59N 36°16' W 009°42'712.3
2018-Oct-08 04:25N 36°16' W 009°34'512.3
2018-Oct-08 04:02N 36°16' W 009°28'112.4
2018-Oct-08 03:59N 36°16' W 009°27'612.3
2018-Oct-08 03:30N 36°16' W 009°20'612.4
2018-Oct-08 03:03N 36°15' W 009°13'112.8
2018-Oct-08 03:00N 36°15' W 009°12'612.7
2018-Oct-08 02:30N 36°15' W 009°04'612.5
2018-Oct-08 02:03N 36°15' W 008°57'112.4
2018-Oct-08 02:00N 36°15' W 008°56'612.5
2018-Oct-08 01:30N 36°15' W 008°49'612.6
2018-Oct-08 01:02N 36°14' W 008°41'012.4
2018-Oct-08 01:00N 36°14' W 008°41'712.8
2018-Oct-08 00:28N 36°14' W 008°32'612.7
2018-Oct-07 23:58N 36°14' W 008°25'612.8
2018-Oct-07 23:30N 36°13' W 008°17'612.8
2018-Oct-07 23:02N 36°13' W 008°10'112.0
2018-Oct-07 22:57N 36°13' W 008°08'613.0
2018-Oct-07 22:29N 36°13' W 008°01'1112.6
2018-Oct-07 21:36N 36°12' W 007°47'212.0
2018-Oct-07 21:29N 36°13' W 007°46'612.6
2018-Oct-07 21:02N 36°16' W 007°40'012.4
2018-Oct-07 21:00N 36°17' W 007°40'813.2
2018-Oct-07 20:26N 36°21' W 007°32'613.1
2018-Oct-07 20:00N 36°25' W 007°27'812.7
2018-Oct-07 19:23N 36°30' W 007°19'412.7
2018-Oct-07 19:03N 36°32' W 007°15'112.4
2018-Oct-07 19:00N 36°33' W 007°15'612.4
2018-Oct-07 18:30N 36°37' W 007°09'19 1.9
2018-Oct-07 08:32N 36°50' W 006°52'0 0.3
2018-Oct-07 08:26N 36°50' W 006°52'  
2018-Oct-03 08:42N 37°05' W 006°52'0 0.0
2018-Oct-03 08:15N 37°05' W 006°52'0 0.0
2018-Oct-03 07:12N 37°05' W 006°52'0 0.0
2018-Oct-03 00:06N 37°05' W 006°52'0 0.0
2018-Oct-02 23:57N 37°05' W 006°52'0 0.0
2018-Oct-02 22:45N 37°05' W 006°52'2 0.4
2018-Oct-02 15:59N 37°02' W 006°53'1210.1
2018-Oct-02 14:45N 36°54' W 007°05'812.9
2018-Oct-02 14:08N 36°48' W 007°11'214.6
2018-Oct-02 14:00N 36°46' W 007°12'1114.0
2018-Oct-02 13:14N 36°38' W 007°21'414.0
2018-Oct-02 12:55N 36°34' W 007°24'614.2
2018-Oct-02 12:29N 36°29' W 007°29'814.3
2018-Oct-02 11:57N 36°23' W 007°34'613.8
2018-Oct-02 11:29N 36°18' W 007°39'613.5
2018-Oct-02 11:03N 36°13' W 007°44'114.1
2018-Oct-02 10:59N 36°12' W 007°44'813.8
2018-Oct-02 10:25N 36°06' W 007°50'613.9
2018-Oct-02 10:00N 36°02' W 007°54'814.2
2018-Oct-02 09:28N 35°55' W 008°00'613.9
2018-Oct-02 09:03N 35°51' W 008°04'114.2
2018-Oct-02 09:00N 35°50' W 008°05'714.2
2018-Oct-02 08:30N 35°45' W 008°10'814.2
2018-Oct-02 07:55N 35°38' W 008°16'614.1
2018-Oct-02 07:30N 35°34' W 008°21'1813.8
2018-Oct-02 06:13N 35°20' W 008°34'213.6
2018-Oct-02 06:04N 35°18' W 008°36'613.8
2018-Oct-02 05:38N 35°13' W 008°40'213.8
2018-Oct-02 05:30N 35°12' W 008°41'613.8
2018-Oct-02 05:03N 35°07' W 008°46'114.1
2018-Oct-02 05:00N 35°06' W 008°46'813.8
2018-Oct-02 04:27N 34°60' W 008°52'613.7
2018-Oct-02 04:02N 34°55' W 008°56'013.6
2018-Oct-02 04:00N 34°55' W 008°56'713.5
2018-Oct-02 03:30N 34°50' W 009°01'713.6
2018-Oct-02 03:00N 34°44' W 009°06'713.6
2018-Oct-02 02:27N 34°38' W 009°12'813.7
2018-Oct-02 01:53N 34°32' W 009°18'513.7
2018-Oct-02 01:30N 34°28' W 009°21'813.4
2018-Oct-02 00:54N 34°22' W 009°27'613.2
2018-Oct-02 00:28N 34°17' W 009°32'513.1
2018-Oct-02 00:03N 34°13' W 009°36'113.2
2018-Oct-02 00:00N 34°12' W 009°36'713.1
2018-Oct-01 23:30N 34°07' W 009°41'612.9
2018-Oct-01 23:03N 34°02' W 009°45'112.6
2018-Oct-01 23:00N 34°02' W 009°45'21613.0
2018-Oct-01 06:22N 31°10' W 012°20'412.9
2018-Oct-01 06:01N 31°07' W 012°23'012.6
2018-Oct-01 06:00N 31°07' W 012°23'  

Dump ship's entire track history